Cochise — WDD8952 — position and weather

sailwx.info

Track history (hours):
 
Tides and Currents Weather Stations Pressure Air Temp Water Temp Dewpoint Dewpoint Depression Visibility Wind Speed Wind Dir Waves Ship Positions

Cochise

Owner: Sause Bros, Coos Bay, OR. More information available from US FCC via Universal Licensing System and Coast Guard Vessel Documentation Center.

Last reported at 2016-Feb-13 02:20 UTC. Time now 2016-Feb-13 12:50 UTC.
Position N 38°03' W 122°06'.

Length 32 m; draft 4.8 m.

Type: Towing. MMSI: 367304990.

Date/timePositionNaut miles runAvg speedWind from/ knotsBaromVisibWave heightAir tempDewpointWater temp
2016-Feb-13 02:20N 38°03' W 122°06'1 1.6
2016-Feb-13 01:32N 38°02' W 122°08'1 1.5
2016-Feb-13 00:32N 38°02' W 122°09'0 0.0
2016-Feb-12 20:26N 38°02' W 122°10'0 0.0
2016-Feb-12 19:32N 38°02' W 122°10'0 0.0
2016-Feb-12 18:33N 38°02' W 122°10'3 3.2
2016-Feb-12 17:33N 38°04' W 122°13'4 4.3
2016-Feb-12 16:33N 38°03' W 122°19'5 4.7
2016-Feb-12 15:33N 38°01' W 122°24'5 4.7
2016-Feb-12 14:33N 37°56' W 122°26'1 1.4
2016-Feb-12 13:33N 37°55' W 122°25'0 0.0
2016-Feb-12 12:24N 37°55' W 122°25'0 0.0
2016-Feb-12 11:27N 37°55' W 122°25'0 0.0
2016-Feb-12 10:33N 37°55' W 122°25'0 0.0
2016-Feb-12 09:30N 37°55' W 122°25'0 0.0
2016-Feb-12 08:30N 37°55' W 122°25'0 0.0
2016-Feb-12 07:30N 37°55' W 122°25'0 0.0
2016-Feb-12 06:33N 37°55' W 122°25'0 0.0
2016-Feb-12 05:33N 37°55' W 122°25'0 0.0
2016-Feb-12 04:30N 37°55' W 122°25'0 0.0
2016-Feb-12 03:33N 37°55' W 122°25'0 0.0
2016-Feb-12 02:33N 37°55' W 122°25'0 0.0
2016-Feb-12 01:30N 37°55' W 122°25'0 0.0
2016-Feb-12 00:33N 37°55' W 122°25'0 0.0
2016-Feb-11 23:33N 37°55' W 122°25'0 0.0
2016-Feb-11 22:30N 37°55' W 122°25'0 0.0
2016-Feb-11 20:12N 37°55' W 122°25'0 0.0
2016-Feb-11 19:33N 37°55' W 122°25'0 0.5
2016-Feb-11 18:33N 37°55' W 122°25'1 0.6
2016-Feb-11 17:26N 37°55' W 122°26'0 0.1
2016-Feb-11 16:29N 37°55' W 122°26'0 0.0
2016-Feb-11 15:29N 37°55' W 122°26'0 0.0
2016-Feb-11 14:32N 37°55' W 122°26'0 0.0
2016-Feb-11 13:26N 37°55' W 122°26'0 0.1
2016-Feb-11 12:32N 37°55' W 122°26'0 0.1
2016-Feb-11 11:32N 37°55' W 122°26'0 0.1
2016-Feb-11 10:32N 37°55' W 122°26'0 0.0
2016-Feb-11 09:29N 37°55' W 122°26'0 0.0
2016-Feb-11 08:32N 37°55' W 122°26'0 0.0
2016-Feb-11 07:32N 37°55' W 122°26'0 0.1
2016-Feb-11 06:32N 37°55' W 122°26'0 0.1
2016-Feb-11 05:32N 37°55' W 122°26'0 0.0
2016-Feb-11 04:26N 37°55' W 122°26'0 0.0
2016-Feb-11 03:32N 37°55' W 122°26'0 0.0
2016-Feb-11 02:23N 37°55' W 122°26'1 0.8
2016-Feb-11 01:33N 37°56' W 122°26'1110.6
2016-Feb-11 00:32N 38°04' W 122°16'7 0.4
2016-Feb-10 06:33N 38°02' W 122°08'6 5.7
2016-Feb-10 05:34N 38°04' W 122°15'6 5.7
2016-Feb-10 04:33N 38°02' W 122°22'6 5.7
2016-Feb-10 03:34N 37°57' W 122°26'2 2.2
2016-Feb-10 02:34N 37°55' W 122°25'0 0.2
2016-Feb-10 01:33N 37°55' W 122°25'0 0.0
2016-Feb-10 00:34N 37°55' W 122°25'0 0.0
2016-Feb-09 23:33N 37°55' W 122°25'0 0.0
2016-Feb-09 22:33N 37°55' W 122°25'0 0.0
2016-Feb-09 21:33N 37°55' W 122°25'0 0.0
2016-Feb-09 20:33N 37°55' W 122°25'0 0.0
2016-Feb-09 19:33N 37°55' W 122°25'0 0.0
2016-Feb-09 18:33N 37°55' W 122°25'0 0.0
2016-Feb-09 17:33N 37°55' W 122°25'0 0.0
2016-Feb-09 16:33N 37°55' W 122°25'0 0.0
2016-Feb-09 15:33N 37°55' W 122°25'0 0.0
2016-Feb-09 14:33N 37°55' W 122°25'0 0.0
2016-Feb-09 13:33N 37°55' W 122°25'0 0.0
2016-Feb-09 12:33N 37°55' W 122°25'0 0.0
2016-Feb-09 11:30N 37°55' W 122°25'0 0.0
2016-Feb-09 10:30N 37°55' W 122°25'0 0.0
2016-Feb-09 09:33N 37°55' W 122°25'0 0.0
2016-Feb-09 08:30N 37°55' W 122°25'0 0.0
2016-Feb-09 07:33N 37°55' W 122°25'0 0.0
2016-Feb-09 06:30N 37°55' W 122°25'0 0.0
2016-Feb-09 05:30N 37°55' W 122°25'0 0.0
2016-Feb-09 04:33N 37°55' W 122°25'1 1.1
2016-Feb-09 03:34N 37°55' W 122°26'0 0.1
2016-Feb-09 02:33N 37°55' W 122°26'0 0.0
2016-Feb-09 01:32N 37°55' W 122°26'0 0.0
2016-Feb-09 00:29N 37°55' W 122°26'0 0.0
2016-Feb-08 23:32N 37°55' W 122°26'0 0.0
2016-Feb-08 22:32N 37°55' W 122°26'0 0.1
2016-Feb-08 21:32N 37°55' W 122°26'0 0.1
2016-Feb-08 20:23N 37°55' W 122°26'0 0.0
2016-Feb-08 19:32N 37°55' W 122°26'0 0.0
2016-Feb-08 18:32N 37°55' W 122°26'0 0.0
2016-Feb-08 17:32N 37°55' W 122°26'0 0.0
2016-Feb-08 16:29N 37°55' W 122°26'0 0.1
2016-Feb-08 15:29N 37°55' W 122°26'0 0.0
2016-Feb-08 14:32N 37°55' W 122°26'0 0.0
2016-Feb-08 13:32N 37°55' W 122°26'0 0.0
2016-Feb-08 12:32N 37°55' W 122°26'0 0.0
2016-Feb-08 11:32N 37°55' W 122°26'0 0.0
2016-Feb-08 10:32N 37°55' W 122°26'0 0.0
2016-Feb-08 09:32N 37°55' W 122°26'0 0.0
2016-Feb-08 08:32N 37°55' W 122°26'0 0.0
2016-Feb-08 07:32N 37°55' W 122°26'0 0.0
2016-Feb-08 06:32N 37°55' W 122°26'0 0.0
2016-Feb-08 05:23N 37°55' W 122°26'0 0.1
2016-Feb-08 04:29N 37°55' W 122°26'0 0.1
2016-Feb-08 03:33N 37°55' W 122°26'0 0.0
2016-Feb-08 02:33N 37°55' W 122°26'0 0.0
2016-Feb-08 01:33N 37°55' W 122°26'0 0.0
2016-Feb-08 00:33N 37°55' W 122°26'0 0.0
2016-Feb-07 23:33N 37°55' W 122°26'0 0.0
2016-Feb-07 22:33N 37°55' W 122°26'0 0.1
2016-Feb-07 21:33N 37°55' W 122°26'0 0.1
2016-Feb-07 20:33N 37°55' W 122°26'0 0.0
2016-Feb-07 19:33N 37°55' W 122°26'0 0.0
2016-Feb-07 18:33N 37°55' W 122°26'0 0.0
2016-Feb-07 17:33N 37°55' W 122°26'0 0.0
2016-Feb-07 16:33N 37°55' W 122°26'0 0.1
2016-Feb-07 15:33N 37°55' W 122°26'0 0.1
2016-Feb-07 14:33N 37°55' W 122°26'0 0.0
2016-Feb-07 13:33N 37°55' W 122°26'0 0.0
2016-Feb-07 12:33N 37°55' W 122°26'0 0.0
2016-Feb-07 11:33N 37°55' W 122°26'0 0.0
2016-Feb-07 10:33N 37°55' W 122°26'0 0.0
2016-Feb-07 09:33N 37°55' W 122°26'0 0.1
2016-Feb-07 08:33N 37°55' W 122°26'7 7.3
2016-Feb-07 07:33N 38°02' W 122°22'9 8.5
2016-Feb-07 06:33N 38°03' W 122°11'0 0.0
2016-Feb-06 14:20N 38°03' W 122°11'5 5.9
2016-Feb-06 13:33N 38°03' W 122°17'6 6.1
2016-Feb-06 12:33N 38°01' W 122°24'5 5.2
2016-Feb-06 11:33N 37°55' W 122°25'0 0.2
2016-Feb-06 10:31N 37°55' W 122°25'0 0.0
2016-Feb-06 09:31N 37°55' W 122°25'0 0.0
2016-Feb-06 08:31N 37°55' W 122°25'0 0.0
2016-Feb-06 07:31N 37°55' W 122°25'0 0.0
2016-Feb-06 06:31N 37°55' W 122°25'0 0.0
2016-Feb-06 05:31N 37°55' W 122°25'0 0.0
2016-Feb-06 04:31N 37°55' W 122°25'0 0.0
2016-Feb-06 03:31N 37°55' W 122°25'0 0.0
2016-Feb-06 02:31N 37°55' W 122°25'0 0.0
2016-Feb-06 01:31N 37°55' W 122°25'0 0.0
2016-Feb-06 00:31N 37°55' W 122°25'0 0.0
2016-Feb-05 23:31N 37°55' W 122°25'0 0.0
2016-Feb-05 22:31N 37°55' W 122°25'1 0.9
2016-Feb-05 21:33N 37°55' W 122°25'1 0.4
2016-Feb-05 19:33N 37°55' W 122°25'0 0.0
2016-Feb-05 18:30N 37°55' W 122°25'0 0.0
2016-Feb-05 17:33N 37°55' W 122°25'0 0.0
2016-Feb-05 16:33N 37°55' W 122°25'0 0.0
2016-Feb-05 15:33N 37°55' W 122°25'0 0.0
2016-Feb-05 14:33N 37°55' W 122°25'0 0.5
2016-Feb-05 13:33N 37°55' W 122°25'1 0.9
2016-Feb-05 12:33N 37°55' W 122°26'0 0.0
2016-Feb-05 11:33N 37°55' W 122°26'0 0.0
2016-Feb-05 10:33N 37°55' W 122°26'0 0.0
2016-Feb-05 09:33N 37°55' W 122°26'0 0.0
2016-Feb-05 08:33N 37°55' W 122°26'0 0.0
2016-Feb-05 07:33N 37°56' W 122°26'0 0.0
2016-Feb-05 06:34N 37°56' W 122°26'0 0.0
2016-Feb-05 05:33N 37°56' W 122°26'6 5.7
2016-Feb-05 04:33N 37°50' W 122°28'10 9.7
2016-Feb-05 03:33N 37°46' W 122°39'10 9.7
2016-Feb-05 02:33N 37°48' W 122°51'1010.3
2016-Feb-05 01:33N 37°53' W 123°02'10 9.7
2016-Feb-05 00:33N 37°59' W 123°12'1010.4
2016-Feb-04 23:33N 38°07' W 123°21'1010.3
2016-Feb-04 22:33N 38°16' W 123°27'1010.0
2016-Feb-04 21:33N 38°25' W 123°33'1010.0
2016-Feb-04 20:33N 38°33' W 123°39'11 9.8
2016-Feb-04 19:23N 38°44' W 123°46'  
Track history (hours):
 
Tides and Currents Weather Stations Pressure Air Temp Water Temp Dewpoint Dewpoint Depression Visibility Wind Speed Wind Dir Waves Ship Positions

Cochise

Owner: Sause Bros, Coos Bay, OR. More information available from US FCC via Universal Licensing System and Coast Guard Vessel Documentation Center.

Last reported at 2016-Feb-13 02:20 UTC. Time now 2016-Feb-13 12:50 UTC.
Position N 38°03' W 122°06'.

Length 32 m; draft 4.8 m.

Type: Towing. MMSI: 367304990.

Date/timePositionNaut miles runAvg speedWind from/ knotsBaromVisibWave heightAir tempDewpointWater temp
2016-Feb-13 02:20N 38°03' W 122°06'1 1.6
2016-Feb-13 01:32N 38°02' W 122°08'1 1.5
2016-Feb-13 00:32N 38°02' W 122°09'0 0.0
2016-Feb-12 20:26N 38°02' W 122°10'0 0.0
2016-Feb-12 19:32N 38°02' W 122°10'0 0.0
2016-Feb-12 18:33N 38°02' W 122°10'3 3.2
2016-Feb-12 17:33N 38°04' W 122°13'4 4.3
2016-Feb-12 16:33N 38°03' W 122°19'5 4.7
2016-Feb-12 15:33N 38°01' W 122°24'5 4.7
2016-Feb-12 14:33N 37°56' W 122°26'1 1.4
2016-Feb-12 13:33N 37°55' W 122°25'0 0.0
2016-Feb-12 12:24N 37°55' W 122°25'0 0.0
2016-Feb-12 11:27N 37°55' W 122°25'0 0.0
2016-Feb-12 10:33N 37°55' W 122°25'0 0.0
2016-Feb-12 09:30N 37°55' W 122°25'0 0.0
2016-Feb-12 08:30N 37°55' W 122°25'0 0.0
2016-Feb-12 07:30N 37°55' W 122°25'0 0.0
2016-Feb-12 06:33N 37°55' W 122°25'0 0.0
2016-Feb-12 05:33N 37°55' W 122°25'0 0.0
2016-Feb-12 04:30N 37°55' W 122°25'0 0.0
2016-Feb-12 03:33N 37°55' W 122°25'0 0.0
2016-Feb-12 02:33N 37°55' W 122°25'0 0.0
2016-Feb-12 01:30N 37°55' W 122°25'0 0.0
2016-Feb-12 00:33N 37°55' W 122°25'0 0.0
2016-Feb-11 23:33N 37°55' W 122°25'0 0.0
2016-Feb-11 22:30N 37°55' W 122°25'0 0.0
2016-Feb-11 20:12N 37°55' W 122°25'0 0.0
2016-Feb-11 19:33N 37°55' W 122°25'0 0.5
2016-Feb-11 18:33N 37°55' W 122°25'1 0.6
2016-Feb-11 17:26N 37°55' W 122°26'0 0.1
2016-Feb-11 16:29N 37°55' W 122°26'0 0.0
2016-Feb-11 15:29N 37°55' W 122°26'0 0.0
2016-Feb-11 14:32N 37°55' W 122°26'0 0.0
2016-Feb-11 13:26N 37°55' W 122°26'0 0.1
2016-Feb-11 12:32N 37°55' W 122°26'0 0.1
2016-Feb-11 11:32N 37°55' W 122°26'0 0.1
2016-Feb-11 10:32N 37°55' W 122°26'0 0.0
2016-Feb-11 09:29N 37°55' W 122°26'0 0.0
2016-Feb-11 08:32N 37°55' W 122°26'0 0.0
2016-Feb-11 07:32N 37°55' W 122°26'0 0.1
2016-Feb-11 06:32N 37°55' W 122°26'0 0.1
2016-Feb-11 05:32N 37°55' W 122°26'0 0.0
2016-Feb-11 04:26N 37°55' W 122°26'0 0.0
2016-Feb-11 03:32N 37°55' W 122°26'0 0.0
2016-Feb-11 02:23N 37°55' W 122°26'1 0.8
2016-Feb-11 01:33N 37°56' W 122°26'1110.6
2016-Feb-11 00:32N 38°04' W 122°16'7 0.4
2016-Feb-10 06:33N 38°02' W 122°08'6 5.7
2016-Feb-10 05:34N 38°04' W 122°15'6 5.7
2016-Feb-10 04:33N 38°02' W 122°22'6 5.7
2016-Feb-10 03:34N 37°57' W 122°26'2 2.2
2016-Feb-10 02:34N 37°55' W 122°25'0 0.2
2016-Feb-10 01:33N 37°55' W 122°25'0 0.0
2016-Feb-10 00:34N 37°55' W 122°25'0 0.0
2016-Feb-09 23:33N 37°55' W 122°25'0 0.0
2016-Feb-09 22:33N 37°55' W 122°25'0 0.0
2016-Feb-09 21:33N 37°55' W 122°25'0 0.0
2016-Feb-09 20:33N 37°55' W 122°25'0 0.0
2016-Feb-09 19:33N 37°55' W 122°25'0 0.0
2016-Feb-09 18:33N 37°55' W 122°25'0 0.0
2016-Feb-09 17:33N 37°55' W 122°25'0 0.0
2016-Feb-09 16:33N 37°55' W 122°25'0 0.0
2016-Feb-09 15:33N 37°55' W 122°25'0 0.0
2016-Feb-09 14:33N 37°55' W 122°25'0 0.0
2016-Feb-09 13:33N 37°55' W 122°25'0 0.0
2016-Feb-09 12:33N 37°55' W 122°25'0 0.0
2016-Feb-09 11:30N 37°55' W 122°25'0 0.0
2016-Feb-09 10:30N 37°55' W 122°25'0 0.0
2016-Feb-09 09:33N 37°55' W 122°25'0 0.0
2016-Feb-09 08:30N 37°55' W 122°25'0 0.0
2016-Feb-09 07:33N 37°55' W 122°25'0 0.0
2016-Feb-09 06:30N 37°55' W 122°25'0 0.0
2016-Feb-09 05:30N 37°55' W 122°25'0 0.0
2016-Feb-09 04:33N 37°55' W 122°25'1 1.1
2016-Feb-09 03:34N 37°55' W 122°26'0 0.1
2016-Feb-09 02:33N 37°55' W 122°26'0 0.0
2016-Feb-09 01:32N 37°55' W 122°26'0 0.0
2016-Feb-09 00:29N 37°55' W 122°26'0 0.0
2016-Feb-08 23:32N 37°55' W 122°26'0 0.0
2016-Feb-08 22:32N 37°55' W 122°26'0 0.1
2016-Feb-08 21:32N 37°55' W 122°26'0 0.1
2016-Feb-08 20:23N 37°55' W 122°26'0 0.0
2016-Feb-08 19:32N 37°55' W 122°26'0 0.0
2016-Feb-08 18:32N 37°55' W 122°26'0 0.0
2016-Feb-08 17:32N 37°55' W 122°26'0 0.0
2016-Feb-08 16:29N 37°55' W 122°26'0 0.1
2016-Feb-08 15:29N 37°55' W 122°26'0 0.0
2016-Feb-08 14:32N 37°55' W 122°26'0 0.0
2016-Feb-08 13:32N 37°55' W 122°26'0 0.0
2016-Feb-08 12:32N 37°55' W 122°26'0 0.0
2016-Feb-08 11:32N 37°55' W 122°26'0 0.0
2016-Feb-08 10:32N 37°55' W 122°26'0 0.0
2016-Feb-08 09:32N 37°55' W 122°26'0 0.0
2016-Feb-08 08:32N 37°55' W 122°26'0 0.0
2016-Feb-08 07:32N 37°55' W 122°26'0 0.0
2016-Feb-08 06:32N 37°55' W 122°26'0 0.0
2016-Feb-08 05:23N 37°55' W 122°26'0 0.1
2016-Feb-08 04:29N 37°55' W 122°26'0 0.1
2016-Feb-08 03:33N 37°55' W 122°26'0 0.0
2016-Feb-08 02:33N 37°55' W 122°26'0 0.0
2016-Feb-08 01:33N 37°55' W 122°26'0 0.0
2016-Feb-08 00:33N 37°55' W 122°26'0 0.0
2016-Feb-07 23:33N 37°55' W 122°26'0 0.0
2016-Feb-07 22:33N 37°55' W 122°26'0 0.1
2016-Feb-07 21:33N 37°55' W 122°26'0 0.1
2016-Feb-07 20:33N 37°55' W 122°26'0 0.0
2016-Feb-07 19:33N 37°55' W 122°26'0 0.0
2016-Feb-07 18:33N 37°55' W 122°26'0 0.0
2016-Feb-07 17:33N 37°55' W 122°26'0 0.0
2016-Feb-07 16:33N 37°55' W 122°26'0 0.1
2016-Feb-07 15:33N 37°55' W 122°26'0 0.1
2016-Feb-07 14:33N 37°55' W 122°26'0 0.0
2016-Feb-07 13:33N 37°55' W 122°26'0 0.0
2016-Feb-07 12:33N 37°55' W 122°26'0 0.0
2016-Feb-07 11:33N 37°55' W 122°26'0 0.0
2016-Feb-07 10:33N 37°55' W 122°26'0 0.0
2016-Feb-07 09:33N 37°55' W 122°26'0 0.1
2016-Feb-07 08:33N 37°55' W 122°26'7 7.3
2016-Feb-07 07:33N 38°02' W 122°22'9 8.5
2016-Feb-07 06:33N 38°03' W 122°11'0 0.0
2016-Feb-06 14:20N 38°03' W 122°11'5 5.9
2016-Feb-06 13:33N 38°03' W 122°17'6 6.1
2016-Feb-06 12:33N 38°01' W 122°24'5 5.2
2016-Feb-06 11:33N 37°55' W 122°25'0 0.2
2016-Feb-06 10:31N 37°55' W 122°25'0 0.0
2016-Feb-06 09:31N 37°55' W 122°25'0 0.0
2016-Feb-06 08:31N 37°55' W 122°25'0 0.0
2016-Feb-06 07:31N 37°55' W 122°25'0 0.0
2016-Feb-06 06:31N 37°55' W 122°25'0 0.0
2016-Feb-06 05:31N 37°55' W 122°25'0 0.0
2016-Feb-06 04:31N 37°55' W 122°25'0 0.0
2016-Feb-06 03:31N 37°55' W 122°25'0 0.0
2016-Feb-06 02:31N 37°55' W 122°25'0 0.0
2016-Feb-06 01:31N 37°55' W 122°25'0 0.0
2016-Feb-06 00:31N 37°55' W 122°25'0 0.0
2016-Feb-05 23:31N 37°55' W 122°25'0 0.0
2016-Feb-05 22:31N 37°55' W 122°25'1 0.9
2016-Feb-05 21:33N 37°55' W 122°25'1 0.4
2016-Feb-05 19:33N 37°55' W 122°25'0 0.0
2016-Feb-05 18:30N 37°55' W 122°25'0 0.0
2016-Feb-05 17:33N 37°55' W 122°25'0 0.0
2016-Feb-05 16:33N 37°55' W 122°25'0 0.0
2016-Feb-05 15:33N 37°55' W 122°25'0 0.0
2016-Feb-05 14:33N 37°55' W 122°25'0 0.5
2016-Feb-05 13:33N 37°55' W 122°25'1 0.9
2016-Feb-05 12:33N 37°55' W 122°26'0 0.0
2016-Feb-05 11:33N 37°55' W 122°26'0 0.0
2016-Feb-05 10:33N 37°55' W 122°26'0 0.0
2016-Feb-05 09:33N 37°55' W 122°26'0 0.0
2016-Feb-05 08:33N 37°55' W 122°26'0 0.0
2016-Feb-05 07:33N 37°56' W 122°26'0 0.0
2016-Feb-05 06:34N 37°56' W 122°26'0 0.0
2016-Feb-05 05:33N 37°56' W 122°26'6 5.7
2016-Feb-05 04:33N 37°50' W 122°28'10 9.7
2016-Feb-05 03:33N 37°46' W 122°39'10 9.7
2016-Feb-05 02:33N 37°48' W 122°51'1010.3
2016-Feb-05 01:33N 37°53' W 123°02'10 9.7
2016-Feb-05 00:33N 37°59' W 123°12'1010.4
2016-Feb-04 23:33N 38°07' W 123°21'1010.3
2016-Feb-04 22:33N 38°16' W 123°27'1010.0
2016-Feb-04 21:33N 38°25' W 123°33'1010.0
2016-Feb-04 20:33N 38°33' W 123°39'11 9.8
2016-Feb-04 19:23N 38°44' W 123°46'  

Dump ship's entire track history